Weather observations for the past three days for
Paynesville, Paynesville Municipal Airport
Imperial (Metric)
Date Time (cdt) Wind (mph) Vis. (mi.) Weather Sky Cond. Temperature (ºF) Relative Humidity Wind Chill (°F) Heat Index (°F) Pressure Precipitation (in)
Air Dwpt 6 hour altimeter (in) sea level (mb) 1 hr 3 hr 6 hr
Max. Min.
04 09:15 W 20 G 33 10.00 Fair CLR 53.6 37.4 54% 29.51 0.0
04 08:55 W 21 G 35 10.00 Fair and Breezy CLR 53.6 37.4 54% 29.5 0.0
04 08:35 W 21 G 25 10.00 Fair and Breezy CLR 53.6 35.6 51% 29.5 0.0
04 08:15 W 14 G 23 10.00 Fair CLR 53.6 35.6 51% 29.5 0.0
04 07:55 W 15 G 24 10.00 Fair CLR 51.8 37.4 58% 29.5 0.0
04 07:36 W 10 10.00 Fair CLR 51.8 37.4 58% 29.49 0.0
04 07:15 W 8 10.00 Fair CLR 50 37.4 62% 47 29.48 0.0
04 06:55 NW 8 10.00 Fair CLR 50 37.4 62% 47 29.47 0.0
04 06:35 NW 10 10.00 Fair CLR 51.8 37.4 58% 29.46 0.0
04 06:15 NW 14 G 22 10.00 Fair CLR 51.8 37.4 58% 29.45 0.0
04 05:55 NW 10 G 17 10.00 Fair CLR 53.6 37.4 54% 29.44 0.0
04 05:35 W 14 G 24 10.00 Fair CLR 55.4 37.4 51% 29.42 0.0
04 05:16 W 15 10.00 Fair CLR 55.4 33.8 44% 29.41 0.0
04 04:55 W 16 G 24 10.00 Fair CLR 57.2 33.8 41% 29.41 0.0
04 04:35 W 17 G 30 10.00 Partly Cloudy SCT110 59 32 36% 29.42 0.0
04 04:15 SW 18 G 25 10.00 Partly Cloudy SCT120 59 32 36% 29.39 0.0
04 03:55 SW 16 G 24 10.00 Fair CLR 59 30.2 34% 29.4 0.0
04 03:35 SW 16 G 23 10.00 Fair CLR 59 30.2 34% 29.41 0.0
04 03:15 SW 15 G 21 10.00 Fair CLR 57.2 30.2 36% 29.42 0.0
04 02:56 SW 13 10.00 Fair CLR 57.2 30.2 36% 29.44 0.0
04 02:35 SW 13 G 18 10.00 Fair CLR 57.2 28.4 33% 29.45 0.0
04 02:15 SW 14 G 17 10.00 Fair CLR 57.2 28.4 33% 29.46 0.0
04 01:55 SW 12 G 18 10.00 Fair CLR 57.2 28.4 33% 29.48 0.0
04 01:35 SW 12 10.00 Fair CLR 55.4 30.2 38% 29.49 0.0
04 01:15 SW 12 10.00 Fair CLR 55.4 30.2 38% 29.5 0.0
04 00:55 SW 12 G 17 10.00 Fair CLR 55.4 30.2 38% 29.52 0.0
04 00:36 SW 12 10.00 Fair CLR 55.4 30.2 38% 29.52 0.0
04 00:15 S 10 10.00 Fair CLR 55.4 30.2 38% 29.53 0.0
03 23:55 S 10 G 16 10.00 Fair CLR 57.2 30.2 36% 29.55 0.0
03 23:35 S 10 10.00 Fair CLR 57.2 30.2 36% 29.56 0.0
03 23:15 S 9 10.00 Fair CLR 57.2 30.2 36% 29.58 0.0
03 22:55 S 9 10.00 Fair CLR 57.2 30.2 36% 29.59 0.0
03 22:35 S 7 10.00 Fair CLR 57.2 30.2 36% 29.61 0.0
03 22:16 S 7 10.00 Fair CLR 57.2 30.2 36% 29.62 0.0
03 21:55 S 6 10.00 Fair CLR 57.2 30.2 36% 29.63 0.0
03 21:35 SW 6 10.00 Fair CLR 59 30.2 34% 29.63 0.0
03 21:15 SW 8 10.00 Fair CLR 59 30.2 34% 29.64 0.0
03 20:55 SW 7 10.00 Fair CLR 59 30.2 34% 29.64 0.0
03 20:35 SW 7 10.00 Fair CLR 59 32 36% 29.65 0.0
03 20:15 SW 8 10.00 Fair CLR 60.8 32 34% 29.65 0.0
03 19:56 W 7 10.00 Fair CLR 64.4 32 30% 29.66 0.0
03 19:35 W 8 10.00 Fair CLR 66.2 30.2 26% 29.66 0.0
03 19:15 W 10 10.00 Fair CLR 66.2 30.2 26% 29.67 0.0
03 18:55 W 13 10.00 Fair CLR 66.2 32 28% 29.67 0.0
03 18:35 W 12 10.00 Fair CLR 66.2 30.2 26% 29.68 0.0
03 18:15 W 10 10.00 Fair CLR 68 28.4 23% 29.68 0.0
03 17:55 W 14 10.00 Fair CLR 68 28.4 23% 29.69 0.0
03 17:36 W 12 G 20 10.00 Fair CLR 69.8 28.4 21% 29.69 0.0
03 17:15 W 10 10.00 Fair CLR 68 26.6 21% 29.7 0.0
03 16:55 W 13 G 18 10.00 Fair CLR 68 30.2 24% 29.7 0.0
03 16:35 NW 15 G 20 10.00 Fair CLR 69.8 28.4 21% 29.71 0.0
03 16:15 W 15 G 20 10.00 Fair CLR 69.8 30.2 23% 29.72 0.0
03 15:55 NW 12 G 20 10.00 Fair CLR 68 28.4 23% 29.72 0.0
03 15:35 NW 12 G 21 10.00 Fair CLR 68 26.6 21% 29.73 0.0
03 15:16 NW 12 G 16 10.00 Fair CLR 68 28.4 23% 29.74 0.0
03 14:55 NW 12 G 18 10.00 Fair CLR 68 28.4 23% 29.74 0.0
03 14:35 NW 13 G 18 10.00 Fair CLR 68 28.4 23% 29.75 0.0
03 14:15 NW 15 G 23 10.00 Fair CLR 68 26.6 21% 29.76 0.0
03 13:55 NW 15 G 20 10.00 Fair CLR 66.2 26.6 22% 29.77 0.0
03 13:35 NW 12 G 17 10.00 Fair CLR 66.2 26.6 22% 29.78 0.0
03 13:15 NW 14 G 22 10.00 Fair CLR 66.2 26.6 22% 29.78 0.0
03 12:56 NW 9 G 21 10.00 Fair CLR 64.4 26.6 24% 29.79 0.0
03 12:15 N 15 G 24 10.00 Fair CLR 64.4 30.2 28% 29.79 0.0
03 11:55 N 14 G 21 10.00 Fair CLR 62.6 30.2 30% 29.79 0.0
03 11:35 NW 17 G 24 10.00 Fair CLR 62.6 30.2 30% 29.8 0.0
03 11:15 N 15 G 23 10.00 Fair CLR 62.6 30.2 30% 29.8 0.0
03 10:55 N 15 G 21 10.00 Fair CLR 62.6 33.8 34% 29.8 0.0
03 10:36 N 10 G 18 10.00 Fair CLR 60.8 35.6 39% 29.79 0.0
03 10:15 N 16 G 23 10.00 Fair CLR 60.8 35.6 39% 29.79 0.0
03 09:55 NW 14 G 20 10.00 Fair CLR 59 35.6 42% 29.79 0.0
03 09:35 NW 15 G 18 10.00 Fair CLR 59 35.6 42% 29.79 0.0
03 09:15 N 14 G 18 10.00 Fair CLR 57.2 35.6 44% 29.79 0.0
03 08:55 NW 12 G 17 10.00 Fair CLR 55.4 37.4 51% 29.79 0.0
03 08:35 NW 13 10.00 Fair CLR 53.6 37.4 54% 29.78 0.0
03 08:16 N 9 10.00 Fair CLR 51.8 37.4 58% 29.78 0.0
03 07:55 N 9 10.00 Fair CLR 50 35.6 58% 47 29.77 0.0
03 07:35 N 10 10.00 Fair CLR 48.2 35.6 62% 44 29.76 0.0
03 07:15 N 10 G 20 10.00 Fair CLR 48.2 33.8 58% 44 29.75 0.0
03 06:55 NW 13 G 17 10.00 Fair CLR 46.4 33.8 62% 41 29.74 0.0
03 06:35 NW 9 10.00 Fair CLR 46.4 33.8 62% 42 29.73 0.0
03 06:15 NW 10 10.00 Fair CLR 46.4 33.8 62% 42 29.72 0.0
03 05:56 NW 10 10.00 Fair CLR 46.4 33.8 62% 42 29.71 0.0
03 05:35 NW 10 10.00 Fair CLR 46.4 33.8 62% 42 29.7 0.0
03 05:15 NW 13 10.00 Fair CLR 46.4 35.6 66% 41 29.7 0.0
03 04:55 NW 10 10.00 Fair CLR 46.4 35.6 66% 42 29.69 0.0
03 04:35 W 8 10.00 Fair CLR 42.8 33.8 71% 39 29.69 0.0
03 04:15 W 7 10.00 Fair CLR 42.8 33.8 71% 39 29.68 0.0
03 03:55 W 6 10.00 Fair CLR 44.6 33.8 66% 42 29.68 0.0
03 03:36 SW 5 10.00 Fair CLR 50 33.8 54% 49 29.68 0.0
03 03:15 Calm 10.00 Fair CLR 50 35.6 58% 29.68 0.0
03 02:55 Calm 10.00 Fair CLR 51.8 35.6 54% 29.69 0.0
03 02:35 S 7 10.00 Fair CLR 51.8 35.6 54% 29.69 0.0
03 02:15 S 8 10.00 Fair CLR 53.6 35.6 51% 29.69 0.0
03 01:55 S 9 10.00 Fair CLR 53.6 35.6 51% 29.7 0.0
03 01:35 S 8 10.00 Fair CLR 55.4 35.6 47% 29.7 0.0
03 01:16 S 10 10.00 Fair CLR 57.2 35.6 44% 29.7 0.0
03 00:55 S 12 G 18 10.00 Partly Cloudy SCT110 57.2 35.6 44% 29.7 0.0
03 00:35 S 12 10.00 Partly Cloudy SCT110 57.2 35.6 44% 29.71 0.0
03 00:15 S 14 G 20 10.00 Partly Cloudy SCT110 59 35.6 42% 29.71 0.0
02 23:55 S 12 G 18 10.00 Partly Cloudy SCT110 59 35.6 42% 29.72 0.0
02 23:35 SW 10 G 17 10.00 Fair CLR 59 37.4 45% 29.72 0.0
02 23:15 S 14 G 20 10.00 Partly Cloudy SCT100 SCT120 59 37.4 45% 29.73 0.0
02 22:56 SW 10 10.00 Overcast BKN100 OVC110 59 37.4 45% 29.74 0.0
02 22:35 SW 14 G 17 10.00 Mostly Cloudy BKN110 60.8 35.6 39% 29.75 0.0
02 22:15 SW 13 G 22 10.00 Partly Cloudy SCT110 59 32 36% 29.75 0.0
02 21:55 S 9 10.00 Fair CLR 57.2 32 39% 29.76 0.0
02 21:35 S 8 10.00 Partly Cloudy SCT120 55.4 32 41% 29.77 0.0
02 21:15 S 7 10.00 Partly Cloudy SCT120 57.2 32 39% 29.77 0.0
02 20:55 S 8 10.00 Partly Cloudy SCT110 57.2 32 39% 29.78 0.0
02 20:36 SE 5 10.00 Partly Cloudy SCT120 59 32 36% 29.78 0.0
02 20:15 S 3 10.00 Mostly Cloudy BKN120 59 32 36% 29.79 0.0
02 19:55 S 5 10.00 Partly Cloudy SCT100 SCT120 60.8 33.8 36% 29.8 0.0
02 19:35 S 6 10.00 Mostly Cloudy BKN110 60.8 32 34% 29.81 0.0
02 19:15 S 3 10.00 Mostly Cloudy BKN090 BKN120 60.8 33.8 36% 29.82 0.0
02 18:55 S 3 10.00 Mostly Cloudy SCT060 BKN090 BKN120 60.8 33.8 36% 29.84 0.0
02 18:35 W 7 G 25 10.00 Overcast BKN070 OVC080 60.8 33.8 36% 29.85 0.0
02 18:16 W 12 G 21 10.00 Overcast SCT045 BKN070 OVC080 62.6 32 32% 29.86 0.0
02 17:55 W 25 G 36 10.00 Overcast and Breezy SCT075 OVC090 62.6 32 32% 29.87 0.0
02 17:35 W 13 10.00 Overcast SCT075 OVC090 64.4 30.2 28% 29.85 0.0
02 17:15 W 15 G 20 10.00 Mostly Cloudy BKN100 BKN120 64.4 30.2 28% 29.85 0.0
02 16:55 W 17 G 22 10.00 Partly Cloudy SCT090 SCT120 66.2 30.2 26% 29.86 0.0
02 16:35 W 21 10.00 Mostly Cloudy and Breezy SCT090 BKN120 66.2 30.2 26% 29.86 0.0
02 16:15 W 18 G 24 10.00 Mostly Cloudy BKN090 66.2 30.2 26% 29.86 0.0
02 15:56 SW 18 G 24 10.00 Partly Cloudy SCT100 68 30.2 24% 29.87 0.0
02 15:35 W 17 G 23 10.00 Partly Cloudy SCT090 68 30.2 24% 29.88 0.0
02 15:15 W 16 G 22 10.00 Mostly Cloudy BKN090 69.8 32 25% 29.89 0.0
02 14:55 SW 17 G 26 10.00 Partly Cloudy SCT080 SCT110 69.8 32 25% 29.9 0.0
02 14:35 SW 13 G 21 10.00 Fair CLR 68 32 26% 29.91 0.0
02 14:15 SW 9 G 16 10.00 Fair CLR 66.2 32 28% 29.92 0.0
02 13:55 SW 10 G 17 10.00 Partly Cloudy SCT110 64.4 32 30% 29.94 0.0
02 13:36 SW 12 G 17 10.00 Partly Cloudy SCT110 64.4 32 30% 29.94 0.0
02 13:15 SW 14 G 22 10.00 Fair CLR 62.6 32 32% 29.96 0.0
02 12:55 SW 13 G 21 10.00 Fair CLR 62.6 32 32% 29.97 0.0
02 12:35 SW 13 G 21 10.00 Fair CLR 60.8 30.2 31% 29.98 0.0
02 12:15 SW 12 G 17 10.00 Fair CLR 59 30.2 34% 29.99 0.0
02 11:55 SW 14 G 20 10.00 Fair CLR 59 30.2 34% 30 0.0
02 11:35 SW 14 10.00 Fair CLR 57.2 30.2 36% 30.01 0.0
02 11:16 SW 9 G 17 10.00 Fair CLR 57.2 28.4 33% 30.02 0.0
02 10:55 S 10 G 16 10.00 Fair CLR 57.2 28.4 33% 30.03 0.0
02 10:35 W 14 G 17 10.00 Fair CLR 55.4 28.4 36% 30.04 0.0
02 10:15 W 12 10.00 Fair CLR 53.6 28.4 38% 30.04 0.0
02 09:55 W 10 10.00 Partly Cloudy SCT090 53.6 28.4 38% 30.05 0.0
02 09:35 SW 12 10.00 Partly Cloudy SCT090 51.8 28.4 41% 30.06 0.0
02 09:15 W 10 10.00 Fair CLR 50 28.4 43% 46 30.06 0.0
02 08:56 SW 7 10.00 Fair CLR 48.2 30.2 50% 46 30.07 0.0
02 08:35 W 8 10.00 Fair CLR 46.4 30.2 53% 43 30.07 0.0
02 08:15 W 10 10.00 Fair CLR 44.6 30.2 57% 40 30.07 0.0
02 07:55 W 9 10.00 Fair CLR 42.8 30.2 61% 38 30.08 0.0
02 07:35 W 5 10.00 Fair CLR 37.4 32 81% 34 30.08 0.0
02 07:15 W 5 10.00 Partly Cloudy SCT085 35.6 30.2 81% 32 30.08 0.0
02 06:55 Calm 10.00 Fair CLR 30.2 28.4 93% 30.08 0.0
02 06:36 W 3 10.00 Fair CLR 28.4 26.6 93% 30.08 0.0
02 06:15 W 3 10.00 Fair CLR 28.4 24.8 86% 30.08 0.0
02 05:55 W 3 10.00 Fair CLR 28.4 24.8 86% 30.08 0.0
02 05:35 W 3 10.00 Fair CLR 28.4 24.8 86% 30.09 0.0
02 05:15 W 5 10.00 Fair CLR 28.4 24.8 86% 24 30.09 0.0
02 04:55 W 5 10.00 Fair CLR 28.4 24.8 86% 24 30.09 0.0
02 04:35 W 5 10.00 Fair CLR 28.4 24.8 86% 24 30.09 0.0
02 04:16 W 5 10.00 Fair CLR 30.2 24.8 80% 26 30.09 0.0
02 03:55 W 3 10.00 Fair CLR 30.2 26.6 86% 30.08 0.0
02 03:35 W 3 10.00 Fair CLR 30.2 24.8 80% 30.08 0.0
02 02:55 W 5 10.00 Fair CLR 30.2 24.8 80% 26 30.08 0.0
02 02:35 W 3 10.00 Fair CLR 30.2 24.8 80% 30.08 0.0
02 02:15 W 3 10.00 Fair CLR 30.2 24.8 80% 30.09 0.0
02 01:56 W 3 10.00 Fair CLR 32 24.8 75% 30.09 0.0
02 01:35 W 5 10.00 Fair CLR 32 24.8 75% 28 30.1 0.0
02 01:15 W 5 10.00 Fair CLR 32 24.8 75% 28 30.1 0.0
02 00:55 W 5 10.00 Fair CLR 32 24.8 75% 28 30.1 0.0
02 00:35 W 5 10.00 Fair CLR 32 24.8 75% 28 30.09 0.0
02 00:15 W 5 10.00 Fair CLR 33.8 26.6 75% 30 30.1 0.0
01 23:55 W 5 10.00 Fair CLR 33.8 24.8 70% 30 30.1 0.0
01 23:36 W 3 10.00 Fair CLR 33.8 26.6 75% 30.1 0.0
01 23:15 W 5 10.00 Fair CLR 33.8 26.6 75% 30 30.1 0.0
01 22:55 W 5 10.00 Fair CLR 35.6 26.6 70% 32 30.1 0.0
01 22:35 Calm 10.00 Fair CLR 35.6 26.6 70% 30.1 0.0
01 22:15 Calm 10.00 Fair CLR 37.4 26.6 65% 30.1 0.0
01 21:55 Calm 10.00 Fair CLR 37.4 26.6 65% 30.1 0.0
01 21:35 Calm 10.00 Fair CLR 39.2 24.8 56% 30.09 0.0
01 21:16 Calm 10.00 Fair CLR 42.8 26.6 53% 30.09 0.0
01 20:55 Calm 10.00 Partly Cloudy SCT080 44.6 24.8 46% 30.09 0.0
01 20:35 Calm 10.00 Overcast OVC080 48.2 24.8 40% 30.08 0.0
01 20:15 Calm 10.00 Overcast OVC080 50 23 35% 30.08 0.0
01 19:55 NW 5 10.00 Mostly Cloudy BKN080 50 23 35% 49 30.08 0.0
01 19:35 NW 5 10.00 Mostly Cloudy BKN080 51.8 21.2 30% 30.07 0.0
01 19:15 N 5 10.00 Overcast OVC080 51.8 19.4 28% 30.07 0.0
01 18:56 N 3 10.00 Mostly Cloudy BKN080 53.6 21.2 28% 30.07 0.0
01 18:35 N 3 10.00 Mostly Cloudy BKN080 53.6 21.2 28% 30.08 0.0
01 18:15 NE 3 10.00 Mostly Cloudy BKN070 51.8 21.2 30% 30.08 0.0
01 17:55 NE 7 10.00 Mostly Cloudy BKN070 53.6 21.2 28% 30.08 0.0
01 17:35 NE 6 10.00 Mostly Cloudy BKN070 51.8 23 32% 30.08 0.0
01 17:15 NE 6 10.00 Mostly Cloudy BKN070 53.6 23 30% 30.09 0.0
01 16:55 NE 3 10.00 Partly Cloudy SCT070 51.8 21.2 30% 30.08 0.0
01 16:36 NW 8 10.00 Mostly Cloudy BKN070 53.6 23 30% 30.08 0.0
01 16:15 NW 6 10.00 Partly Cloudy SCT070 51.8 23 32% 30.09 0.0
01 15:55 NW 3 10.00 Mostly Cloudy BKN070 51.8 23 32% 30.09 0.0
01 15:35 Calm 10.00 Mostly Cloudy BKN070 50 23 35% 30.1 0.0
01 15:15 NE 3 10.00 Partly Cloudy SCT060 50 21.2 32% 30.1 0.0
01 14:55 W 13 10.00 Mostly Cloudy BKN060 48.2 23 37% 43 30.1 0.0
01 14:35 Calm 10.00 Partly Cloudy SCT070 51.8 23 32% 30.1 0.0
01 14:16 NW 3 10.00 Overcast OVC070 50 23 35% 30.11 0.0
01 13:55 W 8 10.00 Overcast OVC065 48.2 24.8 40% 45 30.11 0.0
01 13:35 NE 8 10.00 Mostly Cloudy BKN065 51.8 24.8 35% 30.11 0.0
01 13:15 Calm 10.00 Mostly Cloudy BKN065 46.4 23 40% 30.11 0.0
01 12:55 N 5 10.00 Overcast OVC065 46.4 23 40% 45 30.11 0.0
01 12:35 Calm 10.00 Mostly Cloudy BKN055 46.4 23 40% 30.12 0.0
01 12:15 N 7 10.00 Mostly Cloudy BKN055 46.4 23 40% 43 30.12 0.0
01 11:56 NW 5 10.00 Mostly Cloudy BKN055 46.4 24.8 43% 45 30.12 0.0
01 11:35 NW 7 10.00 Mostly Cloudy BKN055 44.6 23 43% 41 30.12 0.0
01 11:15 N 5 10.00 Fair CLR 44.6 24.8 46% 43 30.13 0.0
01 10:55 NE 5 10.00 Partly Cloudy SCT048 SCT060 46.4 23 40% 45 30.12 0.0
01 10:35 E 6 10.00 Mostly Cloudy BKN060 44.6 24.8 46% 42 30.13 0.0
01 10:15 NE 3 10.00 Overcast OVC050 44.6 24.8 46% 30.13 0.0
01 09:55 E 5 10.00 Overcast OVC050 42.8 26.6 53% 41 30.12 0.0
01 09:36 NE 5 10.00 Overcast OVC050 42.8 28.4 57% 41 30.12 0.0
Date Time (cdt) Wind (mph) Vis. (mi.) Weather Sky Cond. Air Dwpt Max. Min. Relative Humidity Wind Chill (°F) Heat Index (°F) altimeter (in) sea level (mb) 1 hr 3 hr 6 hr
6 hour
Temperature (ºF) Pressure Precipitation (in)